sensor_id;sensor_type;location;lat;lon;timestamp;pressure;altitude;pressure_sealevel;temperature;humidity
80777;BME280;70169;51.262;6.336;2023-07-31T00:01:09;100609.19;;;16.02;88.93
80777;BME280;70169;51.262;6.336;2023-07-31T00:03:24;100617.97;;;16.02;89.02
80777;BME280;70169;51.262;6.336;2023-07-31T00:05:39;100624.34;;;16.01;88.66
80777;BME280;70169;51.262;6.336;2023-07-31T00:07:55;100612.88;;;16.01;88.78
80777;BME280;70169;51.262;6.336;2023-07-31T00:10:10;100620.66;;;16.02;88.71
80777;BME280;70169;51.262;6.336;2023-07-31T00:12:25;100610.78;;;16.03;88.69
80777;BME280;70169;51.262;6.336;2023-07-31T00:14:41;100611.34;;;16.05;88.39
80777;BME280;70169;51.262;6.336;2023-07-31T00:16:56;100609.50;;;16.06;88.02
80777;BME280;70169;51.262;6.336;2023-07-31T00:19:12;100604.41;;;16.04;88.15
80777;BME280;70169;51.262;6.336;2023-07-31T00:21:27;100606.84;;;16.06;88.04
80777;BME280;70169;51.262;6.336;2023-07-31T00:23:43;100604.19;;;16.06;88.13
80777;BME280;70169;51.262;6.336;2023-07-31T00:25:58;100601.50;;;16.06;87.82
80777;BME280;70169;51.262;6.336;2023-07-31T00:28:13;100603.34;;;16.05;87.78
80777;BME280;70169;51.262;6.336;2023-07-31T00:30:29;100598.84;;;16.06;87.61
80777;BME280;70169;51.262;6.336;2023-07-31T00:32:44;100602.78;;;16.03;87.40
80777;BME280;70169;51.262;6.336;2023-07-31T00:35:01;100591.88;;;16.04;87.33
80777;BME280;70169;51.262;6.336;2023-07-31T00:37:17;100591.88;;;16.04;87.39
80777;BME280;70169;51.262;6.336;2023-07-31T00:39:33;100605.22;;;16.04;87.02
80777;BME280;70169;51.262;6.336;2023-07-31T00:41:49;100603.34;;;16.05;86.98
80777;BME280;70169;51.262;6.336;2023-07-31T00:44:04;100606.50;;;16.02;86.84
80777;BME280;70169;51.262;6.336;2023-07-31T00:46:20;100602.78;;;16.03;86.93
80777;BME280;70169;51.262;6.336;2023-07-31T00:48:38;100595.84;;;16.02;86.66
80777;BME280;70169;51.262;6.336;2023-07-31T00:50:54;100588.09;;;16.00;86.69
80777;BME280;70169;51.262;6.336;2023-07-31T00:53:09;100595.84;;;16.02;86.65
80777;BME280;70169;51.262;6.336;2023-07-31T00:55:25;100590.53;;;16.02;86.48
80777;BME280;70169;51.262;6.336;2023-07-31T00:57:41;100592.94;;;16.03;86.43
80777;BME280;70169;51.262;6.336;2023-07-31T00:59:56;100594.00;;;16.02;86.54
80777;BME280;70169;51.262;6.336;2023-07-31T01:02:12;100584.94;;;16.03;86.40
80777;BME280;70169;51.262;6.336;2023-07-31T01:04:27;100591.22;;;15.97;86.17
80777;BME280;70169;51.262;6.336;2023-07-31T01:06:56;100584.84;;;15.98;86.17
80777;BME280;70169;51.262;6.336;2023-07-31T01:11:52;100578.69;;;15.98;85.99
80777;BME280;70169;51.262;6.336;2023-07-31T01:14:07;100581.13;;;15.99;85.94
80777;BME280;70169;51.262;6.336;2023-07-31T01:16:24;100578.22;;;16.01;86.17
80777;BME280;70169;51.262;6.336;2023-07-31T01:18:40;100578.47;;;15.99;85.98
80777;BME280;70169;51.262;6.336;2023-07-31T01:21:03;100578.38;;;15.94;86.13
80777;BME280;70169;51.262;6.336;2023-07-31T01:26:16;100582.16;;;15.98;85.60
80777;BME280;70169;51.262;6.336;2023-07-31T01:28:56;100587.50;;;15.98;84.92
80777;BME280;70169;51.262;6.336;2023-07-31T01:31:20;100579.28;;;16.00;85.31
80777;BME280;70169;51.262;6.336;2023-07-31T01:33:37;100576.59;;;16.00;85.13
80777;BME280;70169;51.262;6.336;2023-07-31T01:35:53;100587.25;;;16.00;84.84
80777;BME280;70169;51.262;6.336;2023-07-31T01:38:09;100571.50;;;15.98;84.93
80777;BME280;70169;51.262;6.336;2023-07-31T01:40:24;100569.66;;;15.99;84.96
80777;BME280;70169;51.262;6.336;2023-07-31T01:42:40;100571.50;;;15.98;85.13
80777;BME280;70169;51.262;6.336;2023-07-31T01:44:55;100573.38;;;15.98;84.90
80777;BME280;70169;51.262;6.336;2023-07-31T01:47:10;100565.63;;;15.96;84.69
80777;BME280;70169;51.262;6.336;2023-07-31T01:49:26;100566.19;;;15.98;84.28
80777;BME280;70169;51.262;6.336;2023-07-31T01:51:41;100560.03;;;15.98;84.59
80777;BME280;70169;51.262;6.336;2023-07-31T01:53:56;100554.94;;;15.96;84.65
80777;BME280;70169;51.262;6.336;2023-07-31T01:56:12;100550.66;;;15.95;84.44
80777;BME280;70169;51.262;6.336;2023-07-31T01:58:27;100546.94;;;15.96;84.82
80777;BME280;70169;51.262;6.336;2023-07-31T02:00:42;100550.66;;;15.95;84.56
80777;BME280;70169;51.262;6.336;2023-07-31T02:02:59;100557.63;;;15.96;84.82
80777;BME280;70169;51.262;6.336;2023-07-31T02:05:14;100549.84;;;15.95;84.67
80777;BME280;70169;51.262;6.336;2023-07-31T02:07:30;100561.91;;;15.97;84.59
80777;BME280;70169;51.262;6.336;2023-07-31T02:09:45;100561.91;;;15.97;84.71
80777;BME280;70169;51.262;6.336;2023-07-31T02:12:03;100552.03;;;15.98;84.92
80777;BME280;70169;51.262;6.336;2023-07-31T02:14:18;100554.94;;;15.96;85.11
80777;BME280;70169;51.262;6.336;2023-07-31T02:16:33;100547.75;;;15.97;85.13
80777;BME280;70169;51.262;6.336;2023-07-31T02:18:49;100549.16;;;15.99;84.87
80777;BME280;70169;51.262;6.336;2023-07-31T02:21:04;100550.19;;;15.98;85.13
80777;BME280;70169;51.262;6.336;2023-07-31T02:23:19;100550.19;;;15.98;85.28
80777;BME280;70169;51.262;6.336;2023-07-31T02:25:35;100548.59;;;15.97;85.36
80777;BME280;70169;51.262;6.336;2023-07-31T02:27:50;100546.72;;;15.98;85.35
80777;BME280;70169;51.262;6.336;2023-07-31T02:30:06;100542.19;;;15.98;85.24
80777;BME280;70169;51.262;6.336;2023-07-31T02:32:21;100538.47;;;15.99;85.46
80777;BME280;70169;51.262;6.336;2023-07-31T02:34:37;100547.88;;;16.02;85.51
80777;BME280;70169;51.262;6.336;2023-07-31T02:36:52;100532.66;;;16.02;85.46
80777;BME280;70169;51.262;6.336;2023-07-31T02:39:07;100529.22;;;16.02;85.44
80777;BME280;70169;51.262;6.336;2023-07-31T02:41:23;100528.13;;;16.03;85.58
80777;BME280;70169;51.262;6.336;2023-07-31T02:43:38;100517.72;;;16.01;85.72
80777;BME280;70169;51.262;6.336;2023-07-31T02:45:53;100524.19;;;16.06;85.91
80777;BME280;70169;51.262;6.336;2023-07-31T02:48:09;100525.78;;;16.07;86.04
80777;BME280;70169;51.262;6.336;2023-07-31T02:50:24;100519.66;;;16.06;85.87
80777;BME280;70169;51.262;6.336;2023-07-31T02:52:39;100518.31;;;16.03;86.17
80777;BME280;70169;51.262;6.336;2023-07-31T02:54:55;100512.16;;;16.03;86.00
80777;BME280;70169;51.262;6.336;2023-07-31T02:57:10;100513.53;;;16.06;86.11
80777;BME280;70169;51.262;6.336;2023-07-31T02:59:27;100518.38;;;16.09;86.01
80777;BME280;70169;51.262;6.336;2023-07-31T03:01:43;100508.53;;;16.09;85.83
80777;BME280;70169;51.262;6.336;2023-07-31T03:03:58;100508.53;;;16.09;85.91
80777;BME280;70169;51.262;6.336;2023-07-31T03:06:14;100509.91;;;16.12;85.76
80777;BME280;70169;51.262;6.336;2023-07-31T03:08:29;100500.84;;;16.13;85.63
80777;BME280;70169;51.262;6.336;2023-07-31T03:10:44;100514.50;;;16.16;85.30
80777;BME280;70169;51.262;6.336;2023-07-31T03:12:59;100509.16;;;16.16;85.21
80777;BME280;70169;51.262;6.336;2023-07-31T03:15:15;100505.13;;;16.14;85.46
80777;BME280;70169;51.262;6.336;2023-07-31T03:17:30;100503.59;;;16.18;85.25
80777;BME280;70169;51.262;6.336;2023-07-31T03:19:45;100499.56;;;16.15;85.19
80777;BME280;70169;51.262;6.336;2023-07-31T03:22:01;100505.78;;;16.21;85.20
80777;BME280;70169;51.262;6.336;2023-07-31T03:24:16;100514.59;;;16.21;85.39
80777;BME280;70169;51.262;6.336;2023-07-31T03:26:32;100509.25;;;16.21;85.29
80777;BME280;70169;51.262;6.336;2023-07-31T03:28:47;100509.25;;;16.21;85.70
80777;BME280;70169;51.262;6.336;2023-07-31T03:31:04;100504.50;;;16.23;85.45
80777;BME280;70169;51.262;6.336;2023-07-31T03:33:20;100503.44;;;16.25;85.30
80777;BME280;70169;51.262;6.336;2023-07-31T03:35:35;100496.25;;;16.25;85.38
80777;BME280;70169;51.262;6.336;2023-07-31T03:37:50;100498.66;;;16.27;85.19
80777;BME280;70169;51.262;6.336;2023-07-31T03:40:06;100491.22;;;16.29;85.14
80777;BME280;70169;51.262;6.336;2023-07-31T03:42:21;100495.75;;;16.28;84.97
80777;BME280;70169;51.262;6.336;2023-07-31T03:44:37;100495.75;;;16.28;84.88
80777;BME280;70169;51.262;6.336;2023-07-31T03:46:52;100494.63;;;16.24;85.06
80777;BME280;70169;51.262;6.336;2023-07-31T03:49:07;100488.00;;;16.27;85.14
80777;BME280;70169;51.262;6.336;2023-07-31T03:51:23;100491.47;;;16.27;84.77
80777;BME280;70169;51.262;6.336;2023-07-31T03:53:38;100480.25;;;16.25;84.94
80777;BME280;70169;51.262;6.336;2023-07-31T03:55:53;100493.91;;;16.29;85.30
80777;BME280;70169;51.262;6.336;2023-07-31T03:58:10;100486.38;;;16.26;85.22
80777;BME280;70169;51.262;6.336;2023-07-31T04:00:26;100479.75;;;16.28;85.55
80777;BME280;70169;51.262;6.336;2023-07-31T04:02:42;100480.56;;;16.29;85.43
80777;BME280;70169;51.262;6.336;2023-07-31T04:04:57;100483.22;;;16.29;85.42
80777;BME280;70169;51.262;6.336;2023-07-31T04:07:12;100476.59;;;16.31;85.29
80777;BME280;70169;51.262;6.336;2023-07-31T04:09:28;100474.97;;;16.30;85.59
80777;BME280;70169;51.262;6.336;2023-07-31T04:11:43;100472.06;;;16.32;85.20
80777;BME280;70169;51.262;6.336;2023-07-31T04:13:58;100464.88;;;16.32;85.52
80777;BME280;70169;51.262;6.336;2023-07-31T04:16:14;100465.69;;;16.33;85.55
80777;BME280;70169;51.262;6.336;2023-07-31T04:18:29;100465.47;;;16.34;85.42
80777;BME280;70169;51.262;6.336;2023-07-31T04:20:46;100467.06;;;16.35;85.35
80777;BME280;70169;51.262;6.336;2023-07-31T04:23:01;100467.06;;;16.35;85.49
80777;BME280;70169;51.262;6.336;2023-07-31T04:25:16;100457.22;;;16.36;85.48
80777;BME280;70169;51.262;6.336;2023-07-31T04:27:32;100447.34;;;16.36;85.60
80777;BME280;70169;51.262;6.336;2023-07-31T04:29:47;100450.81;;;16.37;85.56
80777;BME280;70169;51.262;6.336;2023-07-31T04:32:02;100450.31;;;16.40;85.74
80777;BME280;70169;51.262;6.336;2023-07-31T04:34:18;100451.94;;;16.41;85.60
80777;BME280;70169;51.262;6.336;2023-07-31T04:36:34;100453.53;;;16.42;85.51
80777;BME280;70169;51.262;6.336;2023-07-31T04:38:49;100450.63;;;16.44;85.39
80777;BME280;70169;51.262;6.336;2023-07-31T04:41:05;100444.25;;;16.45;85.51
80777;BME280;70169;51.262;6.336;2023-07-31T04:46:32;100435.53;;;16.49;85.21
80777;BME280;70169;51.262;6.336;2023-07-31T04:48:47;100429.13;;;16.50;85.33
80777;BME280;70169;51.262;6.336;2023-07-31T04:51:03;100430.72;;;16.51;85.25
80777;BME280;70169;51.262;6.336;2023-07-31T04:53:18;100434.78;;;16.54;85.06
80777;BME280;70169;51.262;6.336;2023-07-31T04:55:34;100432.13;;;16.54;85.01
80777;BME280;70169;51.262;6.336;2023-07-31T04:57:49;100430.50;;;16.53;85.07
80777;BME280;70169;51.262;6.336;2023-07-31T05:00:05;100431.63;;;16.57;84.74
80777;BME280;70169;51.262;6.336;2023-07-31T05:02:20;100431.63;;;16.57;84.96
80777;BME280;70169;51.262;6.336;2023-07-31T05:04:36;100436.72;;;16.58;84.96
80777;BME280;70169;51.262;6.336;2023-07-31T05:06:51;100435.66;;;16.59;84.93
80777;BME280;70169;51.262;6.336;2023-07-31T05:09:06;100424.19;;;16.59;84.69
80777;BME280;70169;51.262;6.336;2023-07-31T05:11:22;100414.88;;;16.62;84.56
80777;BME280;70169;51.262;6.336;2023-07-31T05:13:37;100417.31;;;16.63;84.51
80777;BME280;70169;51.262;6.336;2023-07-31T05:15:52;100420.28;;;16.67;84.74
80777;BME280;70169;51.262;6.336;2023-07-31T05:18:09;100406.09;;;16.66;84.26
80777;BME280;70169;51.262;6.336;2023-07-31T05:20:24;100412.56;;;16.70;84.39
80777;BME280;70169;51.262;6.336;2023-07-31T05:22:39;100402.44;;;16.72;84.69
80777;BME280;70169;51.262;6.336;2023-07-31T05:24:55;100397.38;;;16.71;84.37
80777;BME280;70169;51.262;6.336;2023-07-31T05:27:10;100397.13;;;16.72;84.27
80777;BME280;70169;51.262;6.336;2023-07-31T05:29:25;100396.63;;;16.75;84.21
80777;BME280;70169;51.262;6.336;2023-07-31T05:31:41;100396.63;;;16.75;83.69
80777;BME280;70169;51.262;6.336;2023-07-31T05:33:56;100397.16;;;16.77;84.15
80777;BME280;70169;51.262;6.336;2023-07-31T05:36:11;100394.25;;;16.79;84.19
80777;BME280;70169;51.262;6.336;2023-07-31T05:38:27;100388.91;;;16.79;84.35
80777;BME280;70169;51.262;6.336;2023-07-31T05:40:42;100403.88;;;16.80;84.39
80777;BME280;70169;51.262;6.336;2023-07-31T05:42:58;100392.41;;;16.80;84.72
80777;BME280;70169;51.262;6.336;2023-07-31T05:45:13;100395.34;;;16.78;84.63
80777;BME280;70169;51.262;6.336;2023-07-31T05:47:29;100394.78;;;16.76;84.88
80777;BME280;70169;51.262;6.336;2023-07-31T05:49:44;100396.31;;;16.72;85.14
80777;BME280;70169;51.262;6.336;2023-07-31T05:51:59;100388.56;;;16.70;85.45
80777;BME280;70169;51.262;6.336;2023-07-31T05:54:15;100389.59;;;16.69;85.95
80777;BME280;70169;51.262;6.336;2023-07-31T05:56:30;100385.88;;;16.70;85.63
80777;BME280;70169;51.262;6.336;2023-07-31T05:58:46;100385.59;;;16.67;85.83
80777;BME280;70169;51.262;6.336;2023-07-31T06:01:02;100372.97;;;16.62;86.07
80777;BME280;70169;51.262;6.336;2023-07-31T06:03:19;100386.88;;;16.64;86.15
80777;BME280;70169;51.262;6.336;2023-07-31T06:05:34;100379.38;;;16.61;86.56
80777;BME280;70169;51.262;6.336;2023-07-31T06:07:49;100377.53;;;16.62;86.64
80777;BME280;70169;51.262;6.336;2023-07-31T06:10:05;100375.09;;;16.60;86.92
80777;BME280;70169;51.262;6.336;2023-07-31T06:12:21;100372.94;;;16.57;87.28
80777;BME280;70169;51.262;6.336;2023-07-31T06:14:36;100385.44;;;16.56;86.94
80777;BME280;70169;51.262;6.336;2023-07-31T06:16:51;100382.22;;;16.54;87.29
80777;BME280;70169;51.262;6.336;2023-07-31T06:19:07;100384.28;;;16.47;87.33
80777;BME280;70169;51.262;6.336;2023-07-31T06:21:22;100386.94;;;16.47;87.89
80777;BME280;70169;51.262;6.336;2023-07-31T06:23:38;100392.03;;;16.49;87.73
80777;BME280;70169;51.262;6.336;2023-07-31T06:25:53;100389.38;;;16.49;88.03
80777;BME280;70169;51.262;6.336;2023-07-31T06:28:08;100389.38;;;16.49;87.91
80777;BME280;70169;51.262;6.336;2023-07-31T06:30:23;100393.63;;;16.50;88.05
80777;BME280;70169;51.262;6.336;2023-07-31T06:32:39;100393.31;;;16.46;87.80
80777;BME280;70169;51.262;6.336;2023-07-31T06:34:55;100398.66;;;16.46;88.23
80777;BME280;70169;51.262;6.336;2023-07-31T06:37:11;100394.38;;;16.45;88.22
80777;BME280;70169;51.262;6.336;2023-07-31T06:39:26;100400.19;;;16.42;88.31
80777;BME280;70169;51.262;6.336;2023-07-31T06:41:42;100397.81;;;16.40;88.26
80777;BME280;70169;51.262;6.336;2023-07-31T06:43:57;100400.97;;;16.37;88.57
80777;BME280;70169;51.262;6.336;2023-07-31T06:46:13;100388.66;;;16.36;88.38
80777;BME280;70169;51.262;6.336;2023-07-31T06:48:28;100392.94;;;16.37;88.56
80777;BME280;70169;51.262;6.336;2023-07-31T06:50:44;100376.84;;;16.32;88.90
80777;BME280;70169;51.262;6.336;2023-07-31T06:52:59;100376.06;;;16.32;88.99
80777;BME280;70169;51.262;6.336;2023-07-31T06:55:19;100391.25;;;16.31;89.54
80777;BME280;70169;51.262;6.336;2023-07-31T06:57:35;100390.69;;;16.29;89.13
80777;BME280;70169;51.262;6.336;2023-07-31T06:59:50;100376.78;;;16.27;89.40
80777;BME280;70169;51.262;6.336;2023-07-31T07:02:05;100360.78;;;16.27;89.37
80777;BME280;70169;51.262;6.336;2023-07-31T07:04:21;100373.63;;;16.30;89.44
80777;BME280;70169;51.262;6.336;2023-07-31T07:06:36;100377.63;;;16.28;89.28
80777;BME280;70169;51.262;6.336;2023-07-31T07:08:51;100375.69;;;16.23;89.39
80777;BME280;70169;51.262;6.336;2023-07-31T07:11:07;100372.44;;;16.21;89.14
80777;BME280;70169;51.262;6.336;2023-07-31T07:13:22;100362.78;;;16.15;89.20
80777;BME280;70169;51.262;6.336;2023-07-31T07:15:37;100365.16;;;16.16;89.29
80777;BME280;70169;51.262;6.336;2023-07-31T07:17:53;100372.06;;;16.12;89.22
80777;BME280;70169;51.262;6.336;2023-07-31T07:20:08;100376.09;;;16.15;89.42
80777;BME280;70169;51.262;6.336;2023-07-31T07:22:24;100377.69;;;16.16;89.70
80777;BME280;70169;51.262;6.336;2023-07-31T07:24:41;100363.03;;;16.13;89.37
80777;BME280;70169;51.262;6.336;2023-07-31T07:26:57;100372.13;;;16.17;89.17
80777;BME280;70169;51.262;6.336;2023-07-31T07:29:12;100367.78;;;16.11;89.46
80777;BME280;70169;51.262;6.336;2023-07-31T07:31:28;100367.22;;;16.09;89.13
80777;BME280;70169;51.262;6.336;2023-07-31T07:33:43;100364.78;;;16.08;89.23
80777;BME280;70169;51.262;6.336;2023-07-31T07:36:00;100356.47;;;16.04;89.50
80777;BME280;70169;51.262;6.336;2023-07-31T07:38:16;100362.13;;;16.08;89.73
80777;BME280;70169;51.262;6.336;2023-07-31T07:40:31;100360.84;;;16.10;89.60
80777;BME280;70169;51.262;6.336;2023-07-31T07:42:46;100362.19;;;16.13;89.53
80777;BME280;70169;51.262;6.336;2023-07-31T07:45:02;100350.00;;;16.17;89.68
80777;BME280;70169;51.262;6.336;2023-07-31T07:47:18;100340.69;;;16.19;89.75
80777;BME280;70169;51.262;6.336;2023-07-31T07:49:34;100353.88;;;16.26;89.65
80777;BME280;70169;51.262;6.336;2023-07-31T07:51:50;100345.69;;;16.33;89.57
80777;BME280;70169;51.262;6.336;2023-07-31T07:54:05;100342.53;;;16.36;89.55
80777;BME280;70169;51.262;6.336;2023-07-31T07:56:21;100333.44;;;16.37;89.25
80777;BME280;70169;51.262;6.336;2023-07-31T07:58:36;100334.56;;;16.41;89.27
80777;BME280;70169;51.262;6.336;2023-07-31T08:00:52;100343.38;;;16.41;89.40
80777;BME280;70169;51.262;6.336;2023-07-31T08:03:07;100339.13;;;16.40;89.25
80777;BME280;70169;51.262;6.336;2023-07-31T08:05:22;100344.38;;;16.35;89.28
80777;BME280;70169;51.262;6.336;2023-07-31T08:07:38;100343.81;;;16.33;89.36
80777;BME280;70169;51.262;6.336;2023-07-31T08:09:53;100327.81;;;16.33;89.45
80777;BME280;70169;51.262;6.336;2023-07-31T08:12:09;100330.72;;;16.32;89.37
80777;BME280;70169;51.262;6.336;2023-07-31T08:14:24;100316.91;;;16.35;89.39
80777;BME280;70169;51.262;6.336;2023-07-31T08:16:39;100322.22;;;16.35;89.28
80777;BME280;70169;51.262;6.336;2023-07-31T08:18:55;100316.91;;;16.35;89.25
80777;BME280;70169;51.262;6.336;2023-07-31T08:21:10;100318.31;;;16.43;89.23
80777;BME280;70169;51.262;6.336;2023-07-31T08:23:25;100311.91;;;16.44;88.68
80777;BME280;70169;51.262;6.336;2023-07-31T08:25:41;100315.91;;;16.41;88.48
80777;BME280;70169;51.262;6.336;2023-07-31T08:27:56;100307.66;;;16.43;88.20
80777;BME280;70169;51.262;6.336;2023-07-31T08:30:12;100320.25;;;16.47;88.53
80777;BME280;70169;51.262;6.336;2023-07-31T08:32:27;100320.31;;;16.52;88.73
80777;BME280;70169;51.262;6.336;2023-07-31T08:34:43;100318.25;;;16.59;88.86
80777;BME280;70169;51.262;6.336;2023-07-31T08:36:58;100315.38;;;16.66;88.68
80777;BME280;70169;51.262;6.336;2023-07-31T08:39:13;100314.84;;;16.64;88.36
80777;BME280;70169;51.262;6.336;2023-07-31T08:41:28;100326.34;;;16.65;88.39
80777;BME280;70169;51.262;6.336;2023-07-31T08:43:48;100321.78;;;16.65;88.69
80777;BME280;70169;51.262;6.336;2023-07-31T08:46:05;100314.84;;;16.64;88.68
80777;BME280;70169;51.262;6.336;2023-07-31T08:48:22;100323.91;;;16.63;88.63
80777;BME280;70169;51.262;6.336;2023-07-31T08:50:38;100319.56;;;16.57;88.50
80777;BME280;70169;51.262;6.336;2023-07-31T08:52:53;100313.91;;;16.53;88.82
80777;BME280;70169;51.262;6.336;2023-07-31T08:55:09;100327.75;;;16.50;88.94
80777;BME280;70169;51.262;6.336;2023-07-31T08:57:25;100336.75;;;16.44;88.67
80777;BME280;70169;51.262;6.336;2023-07-31T08:59:40;100327.63;;;16.40;88.64
80777;BME280;70169;51.262;6.336;2023-07-31T09:01:58;100335.69;;;16.45;89.21
80777;BME280;70169;51.262;6.336;2023-07-31T09:04:16;100318.09;;;16.44;89.33
80777;BME280;70169;51.262;6.336;2023-07-31T09:06:34;100317.34;;;16.49;89.37
80777;BME280;70169;51.262;6.336;2023-07-31T09:08:49;100318.44;;;16.53;89.50
80777;BME280;70169;51.262;6.336;2023-07-31T09:11:05;100321.84;;;16.48;89.26
80777;BME280;70169;51.262;6.336;2023-07-31T09:13:20;100331.47;;;16.49;89.25
80777;BME280;70169;51.262;6.336;2023-07-31T09:15:36;100327.25;;;16.53;89.37
80777;BME280;70169;51.262;6.336;2023-07-31T09:17:59;100324.91;;;16.57;89.73
80777;BME280;70169;51.262;6.336;2023-07-31T09:20:20;100323.28;;;16.56;89.54
80777;BME280;70169;51.262;6.336;2023-07-31T09:22:36;100317.88;;;16.51;89.63
80777;BME280;70169;51.262;6.336;2023-07-31T09:24:51;100322.97;;;16.52;89.53
80777;BME280;70169;51.262;6.336;2023-07-31T09:27:06;100325.41;;;16.54;89.64
80777;BME280;70169;51.262;6.336;2023-07-31T09:29:22;100309.94;;;16.56;89.56
80777;BME280;70169;51.262;6.336;2023-07-31T09:31:42;100316.66;;;16.58;89.89
80777;BME280;70169;51.262;6.336;2023-07-31T09:33:57;100312.34;;;16.57;89.67
80777;BME280;70169;51.262;6.336;2023-07-31T09:36:12;100312.59;;;16.56;89.89
80777;BME280;70169;51.262;6.336;2023-07-31T09:38:28;100309.94;;;16.56;89.63
80777;BME280;70169;51.262;6.336;2023-07-31T09:40:48;100305.16;;;16.58;89.75
80777;BME280;70169;51.262;6.336;2023-07-31T09:43:05;100314.47;;;16.55;89.69
80777;BME280;70169;51.262;6.336;2023-07-31T09:45:20;100297.09;;;16.53;89.29
80777;BME280;70169;51.262;6.336;2023-07-31T09:47:35;100303.22;;;16.53;89.52
80777;BME280;70169;51.262;6.336;2023-07-31T09:49:51;100302.44;;;16.53;89.28
80777;BME280;70169;51.262;6.336;2023-07-31T09:52:11;100314.47;;;16.55;89.54
80777;BME280;70169;51.262;6.336;2023-07-31T09:54:27;100309.63;;;16.52;89.48
80777;BME280;70169;51.262;6.336;2023-07-31T09:56:44;100294.91;;;16.50;89.46
80777;BME280;70169;51.262;6.336;2023-07-31T09:59:04;100304.59;;;16.56;89.40
80777;BME280;70169;51.262;6.336;2023-07-31T10:01:19;100312.06;;;16.54;89.38
80777;BME280;70169;51.262;6.336;2023-07-31T10:03:34;100304.09;;;16.59;89.41
80777;BME280;70169;51.262;6.336;2023-07-31T10:05:50;100299.91;;;16.63;89.34
80777;BME280;70169;51.262;6.336;2023-07-31T10:08:09;100301.28;;;16.71;89.34
80777;BME280;70169;51.262;6.336;2023-07-31T10:10:26;100299.00;;;16.80;88.89
80777;BME280;70169;51.262;6.336;2023-07-31T10:12:43;100291.63;;;16.87;88.88
80777;BME280;70169;51.262;6.336;2023-07-31T10:14:59;100292.47;;;16.92;88.83
80777;BME280;70169;51.262;6.336;2023-07-31T10:17:15;100291.16;;;16.95;88.71
80777;BME280;70169;51.262;6.336;2023-07-31T10:19:32;100287.47;;;17.01;88.35
80777;BME280;70169;51.262;6.336;2023-07-31T10:21:50;100285.94;;;17.05;87.99
80777;BME280;70169;51.262;6.336;2023-07-31T10:24:05;100291.38;;;17.21;88.43
80777;BME280;70169;51.262;6.336;2023-07-31T10:26:23;100285.91;;;17.33;88.15
80777;BME280;70169;51.262;6.336;2023-07-31T10:28:39;100288.34;;;17.39;87.72
80777;BME280;70169;51.262;6.336;2023-07-31T10:30:55;100291.03;;;17.39;87.71
80777;BME280;70169;51.262;6.336;2023-07-31T10:33:11;100292.63;;;17.40;87.65
80777;BME280;70169;51.262;6.336;2023-07-31T10:35:27;100291.25;;;17.33;86.96
80777;BME280;70169;51.262;6.336;2023-07-31T10:37:43;100285.66;;;17.34;86.99
80777;BME280;70169;51.262;6.336;2023-07-31T10:40:06;100283.72;;;17.29;86.50
80777;BME280;70169;51.262;6.336;2023-07-31T10:42:29;100290.91;;;17.29;86.92
80777;BME280;70169;51.262;6.336;2023-07-31T10:44:46;100286.91;;;17.26;86.61
80777;BME280;70169;51.262;6.336;2023-07-31T10:47:02;100295.22;;;17.30;86.81
80777;BME280;70169;51.262;6.336;2023-07-31T10:49:21;100288.81;;;17.31;86.79
80777;BME280;70169;51.262;6.336;2023-07-31T10:51:36;100287.50;;;17.34;86.66
80777;BME280;70169;51.262;6.336;2023-07-31T10:54:10;100283.97;;;17.28;86.50
80777;BME280;70169;51.262;6.336;2023-07-31T10:56:26;100277.31;;;17.30;86.41
80777;BME280;70169;51.262;6.336;2023-07-31T10:58:44;100293.09;;;17.32;86.39
80777;BME280;70169;51.262;6.336;2023-07-31T11:01:01;100288.25;;;17.29;86.55
80777;BME280;70169;51.262;6.336;2023-07-31T11:03:19;100286.41;;;17.29;86.51
80777;BME280;70169;51.262;6.336;2023-07-31T11:07:58;100285.06;;;17.32;86.32
80777;BME280;70169;51.262;6.336;2023-07-31T11:10:16;100291.50;;;17.31;86.55
80777;BME280;70169;51.262;6.336;2023-07-31T11:12:32;100285.91;;;17.33;86.87
80777;BME280;70169;51.262;6.336;2023-07-31T11:14:55;100282.97;;;17.34;86.57
80777;BME280;70169;51.262;6.336;2023-07-31T11:17:10;100284.03;;;17.33;86.84
80777;BME280;70169;51.262;6.336;2023-07-31T11:19:25;100294.72;;;17.33;86.50
80777;BME280;70169;51.262;6.336;2023-07-31T11:21:40;100289.63;;;17.31;86.34
80777;BME280;70169;51.262;6.336;2023-07-31T11:23:57;100279.19;;;17.30;86.30
80777;BME280;70169;51.262;6.336;2023-07-31T11:26:12;100279.97;;;17.30;86.28
80777;BME280;70169;51.262;6.336;2023-07-31T11:28:32;100280.25;;;17.29;86.68
80777;BME280;70169;51.262;6.336;2023-07-31T11:30:48;100271.16;;;17.30;86.32
80777;BME280;70169;51.262;6.336;2023-07-31T11:33:05;100277.13;;;17.37;86.30
80777;BME280;70169;51.262;6.336;2023-07-31T11:35:20;100272.31;;;17.39;86.04
80777;BME280;70169;51.262;6.336;2023-07-31T11:37:42;100286.72;;;17.38;85.49
80777;BME280;70169;51.262;6.336;2023-07-31T11:39:58;100273.91;;;17.40;85.65
80777;BME280;70169;51.262;6.336;2023-07-31T11:42:15;100279.00;;;17.42;85.85
80777;BME280;70169;51.262;6.336;2023-07-31T11:44:39;100274.47;;;17.42;85.74
80777;BME280;70169;51.262;6.336;2023-07-31T11:47:00;100271.56;;;17.44;85.68
80777;BME280;70169;51.262;6.336;2023-07-31T11:49:16;100262.22;;;17.46;85.59
80777;BME280;70169;51.262;6.336;2023-07-31T11:51:32;100269.97;;;17.48;85.90
80777;BME280;70169;51.262;6.336;2023-07-31T11:53:50;100260.09;;;17.48;85.58
80777;BME280;70169;51.262;6.336;2023-07-31T11:56:07;100261.69;;;17.49;85.74
80777;BME280;70169;51.262;6.336;2023-07-31T11:58:23;100272.09;;;17.46;85.80
80777;BME280;70169;51.262;6.336;2023-07-31T12:00:40;100265.97;;;17.45;85.51
80777;BME280;70169;51.262;6.336;2023-07-31T12:02:55;100261.41;;;17.46;86.01